sensor_id;sensor_type;location;lat;lon;timestamp;P1;durP1;ratioP1;P2;durP2;ratioP2
2187;SDS011;1100;52.014;8.540;2023-01-25T00:01:41;13.73;;;5.53;;
2187;SDS011;1100;52.014;8.540;2023-01-25T00:04:07;13.87;;;5.57;;
2187;SDS011;1100;52.014;8.540;2023-01-25T00:06:32;12.70;;;5.07;;
2187;SDS011;1100;52.014;8.540;2023-01-25T00:08:57;13.43;;;5.35;;
2187;SDS011;1100;52.014;8.540;2023-01-25T00:11:23;13.13;;;5.90;;
2187;SDS011;1100;52.014;8.540;2023-01-25T00:13:48;13.27;;;5.47;;
2187;SDS011;1100;52.014;8.540;2023-01-25T00:16:13;15.83;;;5.27;;
2187;SDS011;1100;52.014;8.540;2023-01-25T00:18:39;14.10;;;5.03;;
2187;SDS011;1100;52.014;8.540;2023-01-25T00:21:11;12.73;;;5.10;;
2187;SDS011;1100;52.014;8.540;2023-01-25T00:23:37;13.68;;;4.95;;
2187;SDS011;1100;52.014;8.540;2023-01-25T00:26:03;13.23;;;5.03;;
2187;SDS011;1100;52.014;8.540;2023-01-25T00:28:28;11.30;;;4.80;;
2187;SDS011;1100;52.014;8.540;2023-01-25T00:36:47;12.95;;;5.97;;
2187;SDS011;1100;52.014;8.540;2023-01-25T00:39:14;13.05;;;5.35;;
2187;SDS011;1100;52.014;8.540;2023-01-25T00:41:40;14.10;;;5.73;;
2187;SDS011;1100;52.014;8.540;2023-01-25T00:44:05;14.53;;;6.03;;
2187;SDS011;1100;52.014;8.540;2023-01-25T00:46:31;13.85;;;5.60;;
2187;SDS011;1100;52.014;8.540;2023-01-25T00:48:56;12.53;;;5.47;;
2187;SDS011;1100;52.014;8.540;2023-01-25T00:51:22;13.73;;;5.90;;
2187;SDS011;1100;52.014;8.540;2023-01-25T00:53:48;14.38;;;5.45;;
2187;SDS011;1100;52.014;8.540;2023-01-25T00:56:13;14.97;;;5.93;;
2187;SDS011;1100;52.014;8.540;2023-01-25T00:58:39;14.52;;;5.80;;
2187;SDS011;1100;52.014;8.540;2023-01-25T01:01:05;13.40;;;5.83;;
2187;SDS011;1100;52.014;8.540;2023-01-25T01:03:30;14.87;;;5.93;;
2187;SDS011;1100;52.014;8.540;2023-01-25T01:06:03;15.40;;;6.32;;
2187;SDS011;1100;52.014;8.540;2023-01-25T01:08:34;13.50;;;5.53;;
2187;SDS011;1100;52.014;8.540;2023-01-25T01:11:04;14.83;;;6.07;;
2187;SDS011;1100;52.014;8.540;2023-01-25T01:23:36;15.52;;;5.43;;
2187;SDS011;1100;52.014;8.540;2023-01-25T01:26:02;14.00;;;5.40;;
2187;SDS011;1100;52.014;8.540;2023-01-25T01:28:29;14.00;;;5.53;;
2187;SDS011;1100;52.014;8.540;2023-01-25T01:30:59;13.30;;;5.43;;
2187;SDS011;1100;52.014;8.540;2023-01-25T01:33:28;14.38;;;5.50;;
2187;SDS011;1100;52.014;8.540;2023-01-25T01:35:53;14.97;;;5.90;;
2187;SDS011;1100;52.014;8.540;2023-01-25T01:38:18;15.00;;;5.75;;
2187;SDS011;1100;52.014;8.540;2023-01-25T01:40:44;15.50;;;5.83;;
2187;SDS011;1100;52.014;8.540;2023-01-25T01:43:22;14.93;;;6.22;;
2187;SDS011;1100;52.014;8.540;2023-01-25T01:45:53;15.83;;;6.07;;
2187;SDS011;1100;52.014;8.540;2023-01-25T01:51:03;13.90;;;5.72;;
2187;SDS011;1100;52.014;8.540;2023-01-25T01:53:35;17.90;;;6.30;;
2187;SDS011;1100;52.014;8.540;2023-01-25T01:56:04;14.93;;;4.95;;
2187;SDS011;1100;52.014;8.540;2023-01-25T01:58:35;14.87;;;5.77;;
2187;SDS011;1100;52.014;8.540;2023-01-25T02:01:01;14.52;;;5.90;;
2187;SDS011;1100;52.014;8.540;2023-01-25T02:03:26;12.87;;;5.30;;
2187;SDS011;1100;52.014;8.540;2023-01-25T02:06:03;13.70;;;5.55;;
2187;SDS011;1100;52.014;8.540;2023-01-25T02:08:33;15.30;;;5.80;;
2187;SDS011;1100;52.014;8.540;2023-01-25T02:11:00;12.65;;;5.25;;
2187;SDS011;1100;52.014;8.540;2023-01-25T02:13:27;16.40;;;6.32;;
2187;SDS011;1100;52.014;8.540;2023-01-25T02:15:53;15.80;;;5.40;;
2187;SDS011;1100;52.014;8.540;2023-01-25T02:18:20;13.98;;;5.05;;
2187;SDS011;1100;52.014;8.540;2023-01-25T02:20:49;15.55;;;5.65;;
2187;SDS011;1100;52.014;8.540;2023-01-25T02:26:00;13.20;;;5.22;;
2187;SDS011;1100;52.014;8.540;2023-01-25T02:28:29;14.88;;;5.10;;
2187;SDS011;1100;52.014;8.540;2023-01-25T02:31:00;14.13;;;4.85;;
2187;SDS011;1100;52.014;8.540;2023-01-25T02:33:26;14.93;;;4.80;;
2187;SDS011;1100;52.014;8.540;2023-01-25T02:35:53;12.85;;;4.72;;
2187;SDS011;1100;52.014;8.540;2023-01-25T02:38:23;12.80;;;4.60;;
2187;SDS011;1100;52.014;8.540;2023-01-25T02:41:00;14.30;;;5.03;;
2187;SDS011;1100;52.014;8.540;2023-01-25T02:43:31;14.73;;;4.57;;
2187;SDS011;1100;52.014;8.540;2023-01-25T02:45:59;13.82;;;4.90;;
2187;SDS011;1100;52.014;8.540;2023-01-25T02:48:37;12.03;;;4.17;;
2187;SDS011;1100;52.014;8.540;2023-01-25T02:51:05;11.97;;;4.33;;
2187;SDS011;1100;52.014;8.540;2023-01-25T02:53:31;11.97;;;4.10;;
2187;SDS011;1100;52.014;8.540;2023-01-25T02:55:56;14.63;;;5.00;;
2187;SDS011;1100;52.014;8.540;2023-01-25T02:58:22;15.53;;;5.10;;
2187;SDS011;1100;52.014;8.540;2023-01-25T03:00:47;13.73;;;4.80;;
2187;SDS011;1100;52.014;8.540;2023-01-25T03:03:12;13.70;;;4.67;;
2187;SDS011;1100;52.014;8.540;2023-01-25T03:05:38;12.23;;;4.80;;
2187;SDS011;1100;52.014;8.540;2023-01-25T03:08:03;13.23;;;4.97;;
2187;SDS011;1100;52.014;8.540;2023-01-25T03:10:28;16.37;;;5.60;;
2187;SDS011;1100;52.014;8.540;2023-01-25T03:12:54;13.67;;;4.20;;
2187;SDS011;1100;52.014;8.540;2023-01-25T03:15:19;11.73;;;3.83;;
2187;SDS011;1100;52.014;8.540;2023-01-25T03:17:44;15.40;;;4.57;;
2187;SDS011;1100;52.014;8.540;2023-01-25T03:20:10;13.03;;;4.90;;
2187;SDS011;1100;52.014;8.540;2023-01-25T03:22:35;12.50;;;4.20;;
2187;SDS011;1100;52.014;8.540;2023-01-25T03:25:01;12.03;;;4.40;;
2187;SDS011;1100;52.014;8.540;2023-01-25T03:27:28;13.80;;;5.05;;
2187;SDS011;1100;52.014;8.540;2023-01-25T03:29:54;14.18;;;4.22;;
2187;SDS011;1100;52.014;8.540;2023-01-25T03:32:19;12.77;;;4.37;;
2187;SDS011;1100;52.014;8.540;2023-01-25T03:34:44;13.83;;;4.47;;
2187;SDS011;1100;52.014;8.540;2023-01-25T03:37:10;11.73;;;4.07;;
2187;SDS011;1100;52.014;8.540;2023-01-25T03:39:35;12.57;;;4.53;;
2187;SDS011;1100;52.014;8.540;2023-01-25T03:42:00;12.70;;;4.20;;
2187;SDS011;1100;52.014;8.540;2023-01-25T03:44:26;14.17;;;4.23;;
2187;SDS011;1100;52.014;8.540;2023-01-25T03:46:51;12.77;;;4.43;;
2187;SDS011;1100;52.014;8.540;2023-01-25T03:49:16;14.57;;;4.57;;
2187;SDS011;1100;52.014;8.540;2023-01-25T03:51:42;12.23;;;4.60;;
2187;SDS011;1100;52.014;8.540;2023-01-25T03:54:07;14.77;;;4.60;;
2187;SDS011;1100;52.014;8.540;2023-01-25T03:56:34;12.48;;;4.63;;
2187;SDS011;1100;52.014;8.540;2023-01-25T03:59:00;14.33;;;4.80;;
2187;SDS011;1100;52.014;8.540;2023-01-25T04:01:25;17.20;;;5.00;;
2187;SDS011;1100;52.014;8.540;2023-01-25T04:03:50;11.47;;;4.17;;
2187;SDS011;1100;52.014;8.540;2023-01-25T04:06:15;14.93;;;4.63;;
2187;SDS011;1100;52.014;8.540;2023-01-25T04:08:41;13.70;;;5.53;;
2187;SDS011;1100;52.014;8.540;2023-01-25T04:11:07;14.60;;;5.13;;
2187;SDS011;1100;52.014;8.540;2023-01-25T04:13:33;14.05;;;4.72;;
2187;SDS011;1100;52.014;8.540;2023-01-25T04:16:01;15.18;;;5.18;;
2187;SDS011;1100;52.014;8.540;2023-01-25T04:18:27;14.97;;;5.47;;
2187;SDS011;1100;52.014;8.540;2023-01-25T04:20:52;15.93;;;5.40;;
2187;SDS011;1100;52.014;8.540;2023-01-25T04:23:18;15.50;;;5.70;;
2187;SDS011;1100;52.014;8.540;2023-01-25T04:25:51;18.97;;;5.90;;
2187;SDS011;1100;52.014;8.540;2023-01-25T04:28:23;20.52;;;6.80;;
2187;SDS011;1100;52.014;8.540;2023-01-25T04:30:49;16.58;;;5.72;;
2187;SDS011;1100;52.014;8.540;2023-01-25T04:33:15;19.03;;;6.27;;
2187;SDS011;1100;52.014;8.540;2023-01-25T04:35:40;17.52;;;6.10;;
2187;SDS011;1100;52.014;8.540;2023-01-25T04:38:06;18.63;;;5.93;;
2187;SDS011;1100;52.014;8.540;2023-01-25T04:40:31;18.10;;;5.90;;
2187;SDS011;1100;52.014;8.540;2023-01-25T04:42:57;16.45;;;6.22;;
2187;SDS011;1100;52.014;8.540;2023-01-25T04:45:22;18.07;;;6.07;;
2187;SDS011;1100;52.014;8.540;2023-01-25T04:47:49;17.83;;;5.68;;
2187;SDS011;1100;52.014;8.540;2023-01-25T04:50:19;16.83;;;6.03;;
2187;SDS011;1100;52.014;8.540;2023-01-25T04:52:44;21.30;;;6.47;;
2187;SDS011;1100;52.014;8.540;2023-01-25T04:55:10;20.03;;;6.17;;
2187;SDS011;1100;52.014;8.540;2023-01-25T04:57:35;22.97;;;7.17;;
2187;SDS011;1100;52.014;8.540;2023-01-25T05:00:00;19.27;;;6.23;;
2187;SDS011;1100;52.014;8.540;2023-01-25T05:02:26;22.50;;;7.17;;
2187;SDS011;1100;52.014;8.540;2023-01-25T05:04:51;19.92;;;6.45;;
2187;SDS011;1100;52.014;8.540;2023-01-25T05:07:17;22.53;;;6.83;;
2187;SDS011;1100;52.014;8.540;2023-01-25T05:09:42;21.80;;;7.30;;
2187;SDS011;1100;52.014;8.540;2023-01-25T05:12:07;22.20;;;6.63;;
2187;SDS011;1100;52.014;8.540;2023-01-25T05:14:36;21.23;;;6.95;;
2187;SDS011;1100;52.014;8.540;2023-01-25T05:17:02;22.07;;;7.10;;
2187;SDS011;1100;52.014;8.540;2023-01-25T05:19:28;19.05;;;6.90;;
2187;SDS011;1100;52.014;8.540;2023-01-25T05:21:53;20.20;;;6.70;;
2187;SDS011;1100;52.014;8.540;2023-01-25T05:24:21;20.80;;;7.07;;
2187;SDS011;1100;52.014;8.540;2023-01-25T05:26:47;20.60;;;7.10;;
2187;SDS011;1100;52.014;8.540;2023-01-25T05:29:28;23.20;;;7.27;;
2187;SDS011;1100;52.014;8.540;2023-01-25T05:31:54;24.52;;;7.25;;
2187;SDS011;1100;52.014;8.540;2023-01-25T05:34:20;19.83;;;6.47;;
2187;SDS011;1100;52.014;8.540;2023-01-25T05:36:45;21.85;;;6.78;;
2187;SDS011;1100;52.014;8.540;2023-01-25T05:39:11;21.13;;;6.77;;
2187;SDS011;1100;52.014;8.540;2023-01-25T05:41:36;24.30;;;7.67;;
2187;SDS011;1100;52.014;8.540;2023-01-25T05:44:01;22.60;;;7.43;;
2187;SDS011;1100;52.014;8.540;2023-01-25T05:46:28;26.05;;;8.18;;
2187;SDS011;1100;52.014;8.540;2023-01-25T05:48:53;21.88;;;7.45;;
2187;SDS011;1100;52.014;8.540;2023-01-25T05:51:20;27.08;;;7.90;;
2187;SDS011;1100;52.014;8.540;2023-01-25T05:53:45;21.47;;;7.37;;
2187;SDS011;1100;52.014;8.540;2023-01-25T05:56:11;23.43;;;7.67;;
2187;SDS011;1100;52.014;8.540;2023-01-25T05:58:36;24.63;;;8.20;;
2187;SDS011;1100;52.014;8.540;2023-01-25T06:01:03;22.13;;;7.63;;
2187;SDS011;1100;52.014;8.540;2023-01-25T06:03:30;24.40;;;7.15;;
2187;SDS011;1100;52.014;8.540;2023-01-25T06:05:58;24.70;;;8.10;;
2187;SDS011;1100;52.014;8.540;2023-01-25T06:08:26;21.98;;;7.20;;
2187;SDS011;1100;52.014;8.540;2023-01-25T06:10:52;21.50;;;7.20;;
2187;SDS011;1100;52.014;8.540;2023-01-25T06:13:18;20.23;;;7.03;;
2187;SDS011;1100;52.014;8.540;2023-01-25T06:16:04;20.17;;;6.95;;
2187;SDS011;1100;52.014;8.540;2023-01-25T06:18:30;22.77;;;7.57;;
2187;SDS011;1100;52.014;8.540;2023-01-25T06:20:56;22.57;;;7.13;;
2187;SDS011;1100;52.014;8.540;2023-01-25T06:23:22;19.88;;;7.32;;
2187;SDS011;1100;52.014;8.540;2023-01-25T06:25:48;21.98;;;7.25;;
2187;SDS011;1100;52.014;8.540;2023-01-25T06:28:13;22.57;;;6.67;;
2187;SDS011;1100;52.014;8.540;2023-01-25T06:30:42;24.50;;;7.43;;
2187;SDS011;1100;52.014;8.540;2023-01-25T06:33:07;23.20;;;7.95;;
2187;SDS011;1100;52.014;8.540;2023-01-25T06:35:33;24.90;;;7.50;;
2187;SDS011;1100;52.014;8.540;2023-01-25T06:37:59;24.42;;;7.07;;
2187;SDS011;1100;52.014;8.540;2023-01-25T06:40:25;22.77;;;7.05;;
2187;SDS011;1100;52.014;8.540;2023-01-25T06:42:52;19.43;;;7.23;;
2187;SDS011;1100;52.014;8.540;2023-01-25T06:45:17;23.35;;;7.45;;
2187;SDS011;1100;52.014;8.540;2023-01-25T06:47:43;23.10;;;7.90;;
2187;SDS011;1100;52.014;8.540;2023-01-25T06:50:10;23.08;;;8.25;;
2187;SDS011;1100;52.014;8.540;2023-01-25T06:52:36;23.20;;;7.27;;
2187;SDS011;1100;52.014;8.540;2023-01-25T06:55:02;25.33;;;8.00;;
2187;SDS011;1100;52.014;8.540;2023-01-25T06:57:29;25.25;;;7.80;;
2187;SDS011;1100;52.014;8.540;2023-01-25T06:59:55;21.63;;;7.07;;
2187;SDS011;1100;52.014;8.540;2023-01-25T07:02:23;23.10;;;7.47;;
2187;SDS011;1100;52.014;8.540;2023-01-25T07:04:48;24.27;;;7.95;;
2187;SDS011;1100;52.014;8.540;2023-01-25T07:07:14;25.57;;;7.50;;
2187;SDS011;1100;52.014;8.540;2023-01-25T07:09:39;24.35;;;7.80;;
2187;SDS011;1100;52.014;8.540;2023-01-25T07:12:07;24.00;;;8.13;;
2187;SDS011;1100;52.014;8.540;2023-01-25T07:14:33;24.13;;;8.30;;
2187;SDS011;1100;52.014;8.540;2023-01-25T07:16:59;24.97;;;8.77;;
2187;SDS011;1100;52.014;8.540;2023-01-25T07:19:24;28.63;;;9.15;;
2187;SDS011;1100;52.014;8.540;2023-01-25T07:21:50;30.63;;;9.83;;
2187;SDS011;1100;52.014;8.540;2023-01-25T07:24:18;28.57;;;8.77;;
2187;SDS011;1100;52.014;8.540;2023-01-25T07:26:44;25.88;;;8.77;;
2187;SDS011;1100;52.014;8.540;2023-01-25T07:29:14;28.65;;;9.38;;
2187;SDS011;1100;52.014;8.540;2023-01-25T07:31:43;22.85;;;7.95;;
2187;SDS011;1100;52.014;8.540;2023-01-25T07:34:09;26.67;;;7.83;;
2187;SDS011;1100;52.014;8.540;2023-01-25T07:36:37;28.17;;;9.10;;
2187;SDS011;1100;52.014;8.540;2023-01-25T07:39:02;26.50;;;8.63;;
2187;SDS011;1100;52.014;8.540;2023-01-25T07:41:33;26.63;;;8.60;;
2187;SDS011;1100;52.014;8.540;2023-01-25T07:44:01;28.08;;;8.13;;
2187;SDS011;1100;52.014;8.540;2023-01-25T07:46:27;26.45;;;7.82;;
2187;SDS011;1100;52.014;8.540;2023-01-25T07:48:52;29.73;;;8.43;;
2187;SDS011;1100;52.014;8.540;2023-01-25T07:51:18;24.33;;;8.23;;
2187;SDS011;1100;52.014;8.540;2023-01-25T07:53:52;25.00;;;7.68;;
2187;SDS011;1100;52.014;8.540;2023-01-25T07:56:20;28.42;;;9.07;;
2187;SDS011;1100;52.014;8.540;2023-01-25T07:58:47;25.35;;;8.18;;
2187;SDS011;1100;52.014;8.540;2023-01-25T08:01:14;24.13;;;7.33;;
2187;SDS011;1100;52.014;8.540;2023-01-25T08:03:42;24.20;;;7.80;;
2187;SDS011;1100;52.014;8.540;2023-01-25T08:06:08;27.67;;;8.25;;
2187;SDS011;1100;52.014;8.540;2023-01-25T08:08:36;28.27;;;8.82;;
2187;SDS011;1100;52.014;8.540;2023-01-25T08:11:07;26.63;;;8.37;;
2187;SDS011;1100;52.014;8.540;2023-01-25T08:13:39;25.05;;;8.60;;
2187;SDS011;1100;52.014;8.540;2023-01-25T08:16:05;27.42;;;8.10;;
2187;SDS011;1100;52.014;8.540;2023-01-25T08:18:33;23.60;;;7.75;;
2187;SDS011;1100;52.014;8.540;2023-01-25T08:20:59;25.77;;;8.07;;
2187;SDS011;1100;52.014;8.540;2023-01-25T08:23:25;27.33;;;8.00;;
2187;SDS011;1100;52.014;8.540;2023-01-25T08:25:54;21.83;;;7.13;;
2187;SDS011;1100;52.014;8.540;2023-01-25T08:28:20;27.33;;;7.97;;
2187;SDS011;1100;52.014;8.540;2023-01-25T08:30:46;24.90;;;8.50;;
2187;SDS011;1100;52.014;8.540;2023-01-25T08:33:12;26.27;;;8.97;;
2187;SDS011;1100;52.014;8.540;2023-01-25T08:35:37;23.17;;;7.37;;
2187;SDS011;1100;52.014;8.540;2023-01-25T08:38:02;27.57;;;8.10;;
2187;SDS011;1100;52.014;8.540;2023-01-25T08:40:29;26.17;;;7.25;;
2187;SDS011;1100;52.014;8.540;2023-01-25T08:42:57;27.45;;;8.68;;
2187;SDS011;1100;52.014;8.540;2023-01-25T08:45:23;33.10;;;8.70;;
2187;SDS011;1100;52.014;8.540;2023-01-25T08:47:48;29.23;;;8.40;;
2187;SDS011;1100;52.014;8.540;2023-01-25T08:50:13;27.50;;;8.23;;
2187;SDS011;1100;52.014;8.540;2023-01-25T08:52:40;29.35;;;8.38;;
2187;SDS011;1100;52.014;8.540;2023-01-25T08:55:08;26.67;;;8.03;;
2187;SDS011;1100;52.014;8.540;2023-01-25T08:57:33;36.47;;;9.88;;
2187;SDS011;1100;52.014;8.540;2023-01-25T08:59:59;41.23;;;10.33;;
2187;SDS011;1100;52.014;8.540;2023-01-25T09:02:24;27.87;;;8.67;;
2187;SDS011;1100;52.014;8.540;2023-01-25T09:04:49;32.73;;;8.73;;
2187;SDS011;1100;52.014;8.540;2023-01-25T09:07:15;34.77;;;9.73;;
2187;SDS011;1100;52.014;8.540;2023-01-25T09:09:40;30.57;;;8.97;;
2187;SDS011;1100;52.014;8.540;2023-01-25T09:12:05;32.63;;;8.88;;
2187;SDS011;1100;52.014;8.540;2023-01-25T09:14:33;25.03;;;7.60;;
2187;SDS011;1100;52.014;8.540;2023-01-25T09:16:58;30.27;;;8.73;;
2187;SDS011;1100;52.014;8.540;2023-01-25T09:19:24;26.10;;;8.30;;
2187;SDS011;1100;52.014;8.540;2023-01-25T09:21:49;26.13;;;7.73;;
2187;SDS011;1100;52.014;8.540;2023-01-25T09:24:15;28.90;;;8.37;;
2187;SDS011;1100;52.014;8.540;2023-01-25T09:26:41;28.63;;;8.57;;
2187;SDS011;1100;52.014;8.540;2023-01-25T09:29:07;29.73;;;7.88;;
2187;SDS011;1100;52.014;8.540;2023-01-25T09:31:35;32.30;;;9.05;;
2187;SDS011;1100;52.014;8.540;2023-01-25T09:34:04;33.33;;;9.68;;
2187;SDS011;1100;52.014;8.540;2023-01-25T09:36:30;30.77;;;8.97;;
2187;SDS011;1100;52.014;8.540;2023-01-25T09:38:55;30.93;;;9.03;;
2187;SDS011;1100;52.014;8.540;2023-01-25T09:41:31;28.33;;;8.52;;
2187;SDS011;1100;52.014;8.540;2023-01-25T09:53:06;30.33;;;7.47;;
2187;SDS011;1100;52.014;8.540;2023-01-25T09:55:49;30.73;;;8.57;;
2187;SDS011;1100;52.014;8.540;2023-01-25T09:58:18;37.28;;;8.48;;
2187;SDS011;1100;52.014;8.540;2023-01-25T10:00:47;32.25;;;8.18;;
2187;SDS011;1100;52.014;8.540;2023-01-25T10:03:36;32.03;;;7.90;;
2187;SDS011;1100;52.014;8.540;2023-01-25T10:06:09;32.53;;;8.85;;
2187;SDS011;1100;52.014;8.540;2023-01-25T10:08:41;33.60;;;9.00;;
2187;SDS011;1100;52.014;8.540;2023-01-25T10:13:55;35.55;;;8.32;;
2187;SDS011;1100;52.014;8.540;2023-01-25T10:16:31;31.33;;;8.53;;
2187;SDS011;1100;52.014;8.540;2023-01-25T10:19:16;31.00;;;8.05;;
2187;SDS011;1100;52.014;8.540;2023-01-25T10:22:10;34.00;;;9.40;;
2187;SDS011;1100;52.014;8.540;2023-01-25T10:30:24;29.77;;;7.33;;
2187;SDS011;1100;52.014;8.540;2023-01-25T10:32:51;30.30;;;7.78;;
2187;SDS011;1100;52.014;8.540;2023-01-25T10:35:22;33.53;;;8.98;;
2187;SDS011;1100;52.014;8.540;2023-01-25T10:37:56;30.85;;;8.63;;
2187;SDS011;1100;52.014;8.540;2023-01-25T10:40:26;31.25;;;8.90;;
2187;SDS011;1100;52.014;8.540;2023-01-25T10:43:01;35.47;;;8.87;;
2187;SDS011;1100;52.014;8.540;2023-01-25T10:45:30;34.85;;;9.10;;
2187;SDS011;1100;52.014;8.540;2023-01-25T10:47:56;28.83;;;8.33;;
2187;SDS011;1100;52.014;8.540;2023-01-25T10:50:46;31.50;;;9.48;;
2187;SDS011;1100;52.014;8.540;2023-01-25T10:53:33;30.88;;;8.98;;
2187;SDS011;1100;52.014;8.540;2023-01-25T10:58:44;24.52;;;6.88;;
2187;SDS011;1100;52.014;8.540;2023-01-25T11:01:13;26.53;;;6.67;;
2187;SDS011;1100;52.014;8.540;2023-01-25T11:03:52;30.33;;;8.05;;
2187;SDS011;1100;52.014;8.540;2023-01-25T11:06:27;31.87;;;8.00;;
2187;SDS011;1100;52.014;8.540;2023-01-25T11:08:57;31.33;;;9.00;;
2187;SDS011;1100;52.014;8.540;2023-01-25T11:11:36;36.37;;;9.43;;
2187;SDS011;1100;52.014;8.540;2023-01-25T11:14:24;31.25;;;8.60;;
2187;SDS011;1100;52.014;8.540;2023-01-25T11:16:52;31.52;;;8.05;;
2187;SDS011;1100;52.014;8.540;2023-01-25T11:19:36;26.73;;;7.40;;
2187;SDS011;1100;52.014;8.540;2023-01-25T11:22:04;28.77;;;8.07;;
2187;SDS011;1100;52.014;8.540;2023-01-25T11:24:44;30.17;;;8.55;;
2187;SDS011;1100;52.014;8.540;2023-01-25T11:27:11;28.83;;;7.97;;
2187;SDS011;1100;52.014;8.540;2023-01-25T11:32:30;26.23;;;7.05;;
2187;SDS011;1100;52.014;8.540;2023-01-25T11:34:58;27.73;;;8.00;;
2187;SDS011;1100;52.014;8.540;2023-01-25T11:39:58;28.05;;;7.25;;
2187;SDS011;1100;52.014;8.540;2023-01-25T11:42:46;31.35;;;8.18;;
2187;SDS011;1100;52.014;8.540;2023-01-25T11:48:40;32.92;;;8.90;;
2187;SDS011;1100;52.014;8.540;2023-01-25T11:53:57;32.88;;;8.45;;
2187;SDS011;1100;52.014;8.540;2023-01-25T12:01:49;30.67;;;8.40;;
2187;SDS011;1100;52.014;8.540;2023-01-25T12:07:28;28.95;;;9.20;;
2187;SDS011;1100;52.014;8.540;2023-01-25T12:13:13;29.03;;;7.57;;
2187;SDS011;1100;52.014;8.540;2023-01-25T12:15:43;34.85;;;7.90;;
2187;SDS011;1100;52.014;8.540;2023-01-25T12:21:03;23.83;;;7.43;;
2187;SDS011;1100;52.014;8.540;2023-01-25T12:23:57;25.98;;;7.63;;
2187;SDS011;1100;52.014;8.540;2023-01-25T12:29:18;28.77;;;8.95;;
2187;SDS011;1100;52.014;8.540;2023-01-25T12:32:10;28.98;;;8.05;;
2187;SDS011;1100;52.014;8.540;2023-01-25T12:34:41;29.90;;;7.93;;
2187;SDS011;1100;52.014;8.540;2023-01-25T12:37:14;31.95;;;8.20;;
2187;SDS011;1100;52.014;8.540;2023-01-25T12:39:41;33.70;;;9.03;;
2187;SDS011;1100;52.014;8.540;2023-01-25T12:42:20;29.15;;;7.88;;
2187;SDS011;1100;52.014;8.540;2023-01-25T12:45:33;25.60;;;8.10;;
2187;SDS011;1100;52.014;8.540;2023-01-25T12:52:46;29.75;;;9.43;;
2187;SDS011;1100;52.014;8.540;2023-01-25T12:55:15;29.63;;;9.10;;
2187;SDS011;1100;52.014;8.540;2023-01-25T13:00:40;31.42;;;9.10;;
2187;SDS011;1100;52.014;8.540;2023-01-25T13:06:27;29.60;;;8.20;;
2187;SDS011;1100;52.014;8.540;2023-01-25T13:09:27;22.43;;;7.33;;
2187;SDS011;1100;52.014;8.540;2023-01-25T13:12:01;23.42;;;7.18;;
2187;SDS011;1100;52.014;8.540;2023-01-25T13:14:29;33.45;;;6.95;;
2187;SDS011;1100;52.014;8.540;2023-01-25T13:20:07;30.63;;;7.78;;
2187;SDS011;1100;52.014;8.540;2023-01-25T13:23:11;23.70;;;6.97;;
2187;SDS011;1100;52.014;8.540;2023-01-25T13:28:47;32.58;;;8.20;;
2187;SDS011;1100;52.014;8.540;2023-01-25T13:34:54;38.78;;;8.77;;
2187;SDS011;1100;52.014;8.540;2023-01-25T13:42:33;30.85;;;8.85;;
2187;SDS011;1100;52.014;8.540;2023-01-25T13:45:10;31.35;;;8.40;;
2187;SDS011;1100;52.014;8.540;2023-01-25T13:47:42;31.92;;;8.77;;
2187;SDS011;1100;52.014;8.540;2023-01-25T13:50:22;31.17;;;7.60;;
2187;SDS011;1100;52.014;8.540;2023-01-25T13:52:57;31.30;;;7.40;;
2187;SDS011;1100;52.014;8.540;2023-01-25T13:55:27;27.20;;;7.45;;
2187;SDS011;1100;52.014;8.540;2023-01-25T14:01:04;30.33;;;7.82;;
2187;SDS011;1100;52.014;8.540;2023-01-25T14:03:35;29.33;;;7.37;;
2187;SDS011;1100;52.014;8.540;2023-01-25T14:06:10;28.42;;;6.95;;
2187;SDS011;1100;52.014;8.540;2023-01-25T14:08:41;27.20;;;7.30;;
2187;SDS011;1100;52.014;8.540;2023-01-25T14:11:08;27.38;;;8.15;;
2187;SDS011;1100;52.014;8.540;2023-01-25T14:13:33;28.47;;;8.30;;
2187;SDS011;1100;52.014;8.540;2023-01-25T14:15:59;28.73;;;7.63;;
2187;SDS011;1100;52.014;8.540;2023-01-25T14:21:12;24.23;;;6.68;;
2187;SDS011;1100;52.014;8.540;2023-01-25T14:23:43;24.97;;;6.23;;
2187;SDS011;1100;52.014;8.540;2023-01-25T14:28:43;29.10;;;7.65;;
2187;SDS011;1100;52.014;8.540;2023-01-25T14:31:18;29.17;;;8.13;;
2187;SDS011;1100;52.014;8.540;2023-01-25T14:33:48;25.20;;;6.45;;
2187;SDS011;1100;52.014;8.540;2023-01-25T14:36:21;28.67;;;7.10;;
2187;SDS011;1100;52.014;8.540;2023-01-25T14:38:47;25.88;;;6.50;;
2187;SDS011;1100;52.014;8.540;2023-01-25T14:41:30;27.87;;;8.43;;
2187;SDS011;1100;52.014;8.540;2023-01-25T14:44:00;31.88;;;7.93;;
2187;SDS011;1100;52.014;8.540;2023-01-25T14:46:31;29.67;;;6.80;;
2187;SDS011;1100;52.014;8.540;2023-01-25T14:51:39;32.50;;;7.47;;
2187;SDS011;1100;52.014;8.540;2023-01-25T14:54:14;28.90;;;7.47;;
2187;SDS011;1100;52.014;8.540;2023-01-25T14:56:41;22.73;;;6.55;;
2187;SDS011;1100;52.014;8.540;2023-01-25T15:01:57;23.67;;;7.25;;
2187;SDS011;1100;52.014;8.540;2023-01-25T15:05:03;24.67;;;6.85;;
2187;SDS011;1100;52.014;8.540;2023-01-25T15:07:35;23.90;;;6.53;;
2187;SDS011;1100;52.014;8.540;2023-01-25T15:13:04;24.65;;;6.45;;
2187;SDS011;1100;52.014;8.540;2023-01-25T15:21:09;25.63;;;6.93;;
2187;SDS011;1100;52.014;8.540;2023-01-25T15:23:36;31.20;;;7.80;;
2187;SDS011;1100;52.014;8.540;2023-01-25T15:26:11;26.77;;;7.47;;
2187;SDS011;1100;52.014;8.540;2023-01-25T15:28:38;32.97;;;9.00;;
2187;SDS011;1100;52.014;8.540;2023-01-25T15:31:04;32.30;;;8.10;;
2187;SDS011;1100;52.014;8.540;2023-01-25T15:33:29;28.87;;;7.40;;
2187;SDS011;1100;52.014;8.540;2023-01-25T15:35:56;27.77;;;7.43;;
2187;SDS011;1100;52.014;8.540;2023-01-25T15:38:22;27.63;;;7.57;;
2187;SDS011;1100;52.014;8.540;2023-01-25T15:40:49;26.83;;;7.13;;
2187;SDS011;1100;52.014;8.540;2023-01-25T15:43:15;30.67;;;7.25;;
2187;SDS011;1100;52.014;8.540;2023-01-25T15:45:43;32.00;;;7.87;;
2187;SDS011;1100;52.014;8.540;2023-01-25T15:48:15;29.33;;;8.18;;
2187;SDS011;1100;52.014;8.540;2023-01-25T15:50:42;26.75;;;7.10;;
2187;SDS011;1100;52.014;8.540;2023-01-25T15:53:14;28.13;;;8.63;;
2187;SDS011;1100;52.014;8.540;2023-01-25T15:55:44;27.48;;;7.20;;
2187;SDS011;1100;52.014;8.540;2023-01-25T15:58:17;26.05;;;7.50;;
2187;SDS011;1100;52.014;8.540;2023-01-25T16:00:47;26.70;;;7.05;;
2187;SDS011;1100;52.014;8.540;2023-01-25T16:03:13;28.15;;;8.50;;
2187;SDS011;1100;52.014;8.540;2023-01-25T16:05:38;36.03;;;8.50;;
2187;SDS011;1100;52.014;8.540;2023-01-25T16:08:04;32.17;;;8.40;;
2187;SDS011;1100;52.014;8.540;2023-01-25T16:10:29;36.43;;;8.60;;
2187;SDS011;1100;52.014;8.540;2023-01-25T16:12:55;31.83;;;8.70;;
2187;SDS011;1100;52.014;8.540;2023-01-25T16:15:20;35.33;;;9.73;;
2187;SDS011;1100;52.014;8.540;2023-01-25T16:17:45;41.87;;;11.60;;
2187;SDS011;1100;52.014;8.540;2023-01-25T16:20:18;42.37;;;11.83;;
2187;SDS011;1100;52.014;8.540;2023-01-25T16:22:44;41.70;;;11.50;;
2187;SDS011;1100;52.014;8.540;2023-01-25T16:25:10;40.47;;;11.97;;
2187;SDS011;1100;52.014;8.540;2023-01-25T16:27:35;43.05;;;11.48;;
2187;SDS011;1100;52.014;8.540;2023-01-25T16:30:01;40.83;;;11.70;;
2187;SDS011;1100;52.014;8.540;2023-01-25T16:32:30;43.67;;;12.25;;
2187;SDS011;1100;52.014;8.540;2023-01-25T16:34:56;48.40;;;13.20;;
2187;SDS011;1100;52.014;8.540;2023-01-25T16:37:21;46.93;;;13.97;;
2187;SDS011;1100;52.014;8.540;2023-01-25T16:39:47;44.83;;;11.97;;
2187;SDS011;1100;52.014;8.540;2023-01-25T16:42:12;47.58;;;13.07;;
2187;SDS011;1100;52.014;8.540;2023-01-25T16:44:38;47.60;;;12.17;;
2187;SDS011;1100;52.014;8.540;2023-01-25T16:47:03;43.27;;;12.10;;
2187;SDS011;1100;52.014;8.540;2023-01-25T16:49:29;52.67;;;12.97;;
2187;SDS011;1100;52.014;8.540;2023-01-25T16:51:58;51.45;;;13.63;;
2187;SDS011;1100;52.014;8.540;2023-01-25T16:54:26;43.67;;;12.15;;
2187;SDS011;1100;52.014;8.540;2023-01-25T16:56:52;47.43;;;12.60;;
2187;SDS011;1100;52.014;8.540;2023-01-25T16:59:18;46.70;;;12.10;;
2187;SDS011;1100;52.014;8.540;2023-01-25T17:01:45;45.88;;;13.07;;
2187;SDS011;1100;52.014;8.540;2023-01-25T17:04:11;44.43;;;12.80;;
2187;SDS011;1100;52.014;8.540;2023-01-25T17:06:38;46.87;;;13.27;;
2187;SDS011;1100;52.014;8.540;2023-01-25T17:09:07;51.20;;;13.30;;